Terminal Aerodrome Forecast
Issued by NWS Wichita, KS

Home | Current Version | Previous Version | Text Only | Print | Product List | Glossary On
Versions: 1 2 3 4 5 6 7 8 9 10 11 12 13 14 15 16 17 18 19
000
FTUS43 KICT 200600 AAA
TAFICT
TAF AMD
KICT 200655Z 2007/2106 17009KT P6SM FEW200
      TEMPO 2007/2011 4SM BR
     FM201500 21009KT P6SM FEW070
     FM210000 18006KT P6SM FEW080 SCT150=

USA.gov is the U.S. government's official web portal to all federal, state and local government web resources and services.